createdAt,value
2023-04-29T00:00:00.929Z,20.20
2023-04-29T00:03:58.195Z,19.00
2023-04-29T00:07:44.109Z,18.80
2023-04-29T00:11:17.097Z,19.90
2023-04-29T00:15:05.737Z,19.00
2023-04-29T00:18:55.076Z,20.40
2023-04-29T00:22:34.520Z,19.70
2023-04-29T00:26:04.180Z,19.50
2023-04-29T00:29:54.027Z,19.60
2023-04-29T00:33:42.926Z,18.10
2023-04-29T00:37:31.141Z,17.60
2023-04-29T00:41:02.166Z,19.40
2023-04-29T00:44:51.287Z,18.40
2023-04-29T00:48:40.364Z,20.00
2023-04-29T00:52:21.986Z,19.50
2023-04-29T00:56:07.197Z,20.00
2023-04-29T00:59:38.969Z,19.70
2023-04-29T01:03:18.005Z,19.60
2023-04-29T01:07:16.305Z,19.70
2023-04-29T01:11:09.691Z,20.70
2023-04-29T01:14:43.028Z,21.70
2023-04-29T01:18:36.344Z,20.40
2023-04-29T01:22:17.187Z,21.80
2023-04-29T01:25:34.744Z,20.60
2023-04-29T01:29:16.959Z,18.80
2023-04-29T01:33:03.880Z,17.60
2023-04-29T01:36:54.674Z,18.20
2023-04-29T01:40:38.559Z,18.60
2023-04-29T01:44:18.111Z,18.70
2023-04-29T01:48:00.870Z,17.90
2023-04-29T01:51:43.730Z,17.20
2023-04-29T01:55:15.032Z,18.80
2023-04-29T01:58:29.485Z,21.10
2023-04-29T02:02:18.535Z,21.60
2023-04-29T02:06:00.325Z,20.00
2023-04-29T02:09:48.776Z,19.60
2023-04-29T02:13:15.805Z,18.60
2023-04-29T02:17:10.394Z,19.30
2023-04-29T02:20:46.418Z,19.10
2023-04-29T02:24:35.148Z,18.50
2023-04-29T02:28:16.505Z,19.30
2023-04-29T02:31:57.703Z,20.10
2023-04-29T02:35:46.684Z,21.80
2023-04-29T02:39:16.452Z,23.30
2023-04-29T02:43:04.984Z,20.40
2023-04-29T02:46:46.382Z,22.30
2023-04-29T02:50:35.018Z,22.90
2023-04-29T02:54:23.426Z,22.80
2023-04-29T02:58:12.339Z,21.00
2023-04-29T03:01:27.861Z,22.70
2023-04-29T03:05:16.166Z,22.10
2023-04-29T03:08:56.836Z,20.20
2023-04-29T03:12:38.384Z,21.50
2023-04-29T03:16:20.221Z,22.90
2023-04-29T03:20:09.541Z,21.40
2023-04-29T03:23:50.045Z,20.20
2023-04-29T03:27:08.929Z,19.70
2023-04-29T03:30:40.753Z,17.80
2023-04-29T03:34:28.450Z,20.90
2023-04-29T03:38:17.984Z,20.40
2023-04-29T03:42:01.847Z,20.00
2023-04-29T03:45:52.729Z,19.20
2023-04-29T03:49:37.239Z,19.70
2023-04-29T03:53:07.310Z,18.40
2023-04-29T03:56:49.154Z,18.00
2023-04-29T04:00:38.124Z,16.60
2023-04-29T04:04:00.993Z,17.30
2023-04-29T04:07:42.945Z,18.10
2023-04-29T04:11:10.638Z,18.70
2023-04-29T04:14:37.729Z,16.60
2023-04-29T04:18:06.628Z,17.50
2023-04-29T04:21:17.005Z,17.60
2023-04-29T04:24:49.885Z,17.50
2023-04-29T04:28:10.183Z,17.30
2023-04-29T04:31:58.939Z,17.40
2023-04-29T04:35:47.690Z,16.90
2023-04-29T04:39:20.741Z,17.40
2023-04-29T04:42:53.555Z,16.70
2023-04-29T04:46:38.094Z,16.40
2023-04-29T04:50:06.259Z,16.20
2023-04-29T04:53:47.271Z,16.20
2023-04-29T04:57:36.370Z,16.60
2023-04-29T05:01:08.409Z,15.80
2023-04-29T05:04:39.777Z,15.90
2023-04-29T05:08:08.952Z,17.10
2023-04-29T05:11:31.181Z,16.80
2023-04-29T05:15:23.118Z,15.60
2023-04-29T05:19:12.080Z,16.00
2023-04-29T05:22:25.399Z,17.00
2023-04-29T05:25:57.777Z,16.10
2023-04-29T05:28:56.883Z,16.00
2023-04-29T05:32:31.573Z,16.40
2023-04-29T05:36:09.955Z,16.20
2023-04-29T05:39:51.160Z,15.30
2023-04-29T05:43:40.108Z,15.50
2023-04-29T05:47:19.607Z,16.40
2023-04-29T05:51:09.289Z,16.20
2023-04-29T05:54:32.444Z,14.90
2023-04-29T05:58:21.459Z,15.10
2023-04-29T06:02:11.601Z,15.30
2023-04-29T06:05:47.336Z,15.40
2023-04-29T06:09:42.690Z,15.90
2023-04-29T06:13:31.446Z,16.20
2023-04-29T06:16:55.954Z,16.20
2023-04-29T06:20:43.658Z,15.30
2023-04-29T06:24:32.868Z,15.40
2023-04-29T06:28:22.053Z,16.40
2023-04-29T06:32:12.075Z,16.10
2023-04-29T06:35:42.158Z,16.00
2023-04-29T06:39:33.088Z,15.40
2023-04-29T06:43:21.402Z,15.50
2023-04-29T06:47:13.907Z,15.70
2023-04-29T06:50:45.987Z,15.00
2023-04-29T06:54:01.530Z,14.40
2023-04-29T06:57:44.080Z,14.40
2023-04-29T07:01:19.630Z,14.30
2023-04-29T07:05:09.969Z,14.10
2023-04-29T07:08:54.787Z,15.00
2023-04-29T07:12:46.148Z,15.30
2023-04-29T07:16:35.734Z,14.20
2023-04-29T07:20:25.960Z,14.40
2023-04-29T07:24:07.467Z,14.90
2023-04-29T07:27:53.104Z,16.60
2023-04-29T07:31:37.473Z,16.80
2023-04-29T07:35:29.548Z,16.00
2023-04-29T07:39:19.781Z,14.00
2023-04-29T07:43:03.755Z,14.40
2023-04-29T07:46:44.342Z,14.10
2023-04-29T07:50:34.425Z,14.70
2023-04-29T07:54:28.086Z,14.30
2023-04-29T07:58:14.086Z,13.90
2023-04-29T08:02:14.126Z,14.20
2023-04-29T08:06:07.423Z,14.30
2023-04-29T08:09:36.106Z,13.20
2023-04-29T08:13:28.607Z,14.20
2023-04-29T08:17:18.872Z,13.60
2023-04-29T08:21:09.112Z,14.60
2023-04-29T08:24:59.329Z,14.40
2023-04-29T08:28:35.994Z,14.60
2023-04-29T08:32:24.544Z,13.60
2023-04-29T08:36:14.491Z,14.70
2023-04-29T08:40:11.545Z,14.10
2023-04-29T08:44:02.310Z,14.30
2023-04-29T08:47:51.623Z,13.50
2023-04-29T08:51:39.043Z,11.90
2023-04-29T08:55:20.103Z,12.50
2023-04-29T08:59:10.146Z,12.30
2023-04-29T09:02:59.847Z,11.80
2023-04-29T09:06:51.028Z,13.60
2023-04-29T09:10:41.037Z,14.10
2023-04-29T09:14:32.569Z,13.30
2023-04-29T09:18:22.705Z,10.90
2023-04-29T09:22:20.485Z,12.00
2023-04-29T09:26:15.722Z,12.30
2023-04-29T09:29:48.754Z,12.80
2023-04-29T09:33:34.431Z,12.60
2023-04-29T09:37:06.966Z,13.30
2023-04-29T09:41:08.935Z,14.20
2023-04-29T09:44:44.870Z,12.10
2023-04-29T09:48:23.411Z,13.20
2023-04-29T09:51:52.453Z,12.70
2023-04-29T09:55:41.554Z,13.90
2023-04-29T09:59:14.010Z,12.50
2023-04-29T10:03:04.553Z,12.60
2023-04-29T10:06:54.223Z,13.00
2023-04-29T10:10:33.163Z,12.60
2023-04-29T10:14:13.785Z,12.20
2023-04-29T10:17:28.865Z,12.90
2023-04-29T10:20:55.379Z,13.80
2023-04-29T10:24:31.472Z,13.30
2023-04-29T10:28:20.783Z,14.70
2023-04-29T10:31:47.663Z,14.70
2023-04-29T10:35:37.060Z,14.90
2023-04-29T10:39:32.443Z,16.10
2023-04-29T10:43:14.667Z,15.50
2023-04-29T10:47:09.789Z,15.50
2023-04-29T10:50:55.745Z,16.50
2023-04-29T10:54:38.540Z,16.80
2023-04-29T10:58:28.329Z,16.90
2023-04-29T11:02:24.271Z,16.50
2023-04-29T11:06:14.273Z,16.20
2023-04-29T11:10:11.445Z,16.60
2023-04-29T11:14:03.624Z,17.70
2023-04-29T11:17:59.552Z,17.50
2023-04-29T11:21:59.952Z,18.20
2023-04-29T11:25:49.888Z,18.80
2023-04-29T11:29:32.750Z,20.00
2023-04-29T11:33:22.099Z,20.60
2023-04-29T11:37:11.317Z,20.30
2023-04-29T11:41:01.026Z,21.80
2023-04-29T11:44:49.484Z,23.70
2023-04-29T11:48:39.220Z,19.20
2023-04-29T11:52:29.513Z,22.30
2023-04-29T11:56:12.971Z,20.40
2023-04-29T12:00:02.928Z,20.80
2023-04-29T12:03:56.474Z,20.90
2023-04-29T12:07:46.111Z,17.70
2023-04-29T12:11:35.303Z,17.20
2023-04-29T12:15:06.600Z,15.60
2023-04-29T12:18:56.119Z,14.20
2023-04-29T12:22:41.111Z,14.80
2023-04-29T12:26:31.176Z,13.80
2023-04-29T12:30:25.461Z,13.50
2023-04-29T12:34:30.956Z,12.90
2023-04-29T12:38:11.694Z,12.80
2023-04-29T12:42:01.356Z,12.70
2023-04-29T12:45:50.340Z,12.10
2023-04-29T12:49:43.753Z,12.10
2023-04-29T12:53:33.513Z,12.00
2023-04-29T12:57:14.995Z,9.00
2023-04-29T13:01:04.625Z,11.20
2023-04-29T13:04:53.984Z,11.70
2023-04-29T13:08:43.179Z,11.40
2023-04-29T13:12:32.015Z,9.80
2023-04-29T13:16:14.882Z,9.70
2023-04-29T13:20:06.374Z,1.30
2023-04-29T13:23:55.180Z,1.20
2023-04-29T13:27:44.852Z,0.90
2023-04-29T13:30:59.586Z,0.90
2023-04-29T13:34:48.647Z,1.10
2023-04-29T13:38:39.033Z,1.30
2023-04-29T13:42:26.181Z,1.40
2023-04-29T13:45:57.303Z,1.40
2023-04-29T13:54:26.229Z,2.20
2023-04-29T13:58:03.034Z,1.60
2023-04-29T14:05:26.476Z,2.20
2023-04-29T14:09:16.038Z,1.80
2023-04-29T14:13:05.509Z,2.00
2023-04-29T14:16:54.912Z,2.10
2023-04-29T14:20:43.765Z,2.70
2023-04-29T14:24:18.631Z,2.70
2023-04-29T14:28:08.120Z,3.70
2023-04-29T14:31:57.671Z,4.80
2023-04-29T14:35:37.282Z,5.10
2023-04-29T14:38:51.105Z,6.00
2023-04-29T14:42:23.014Z,6.80
2023-04-29T14:45:57.842Z,6.40
2023-04-29T14:49:47.832Z,7.10
2023-04-29T14:53:28.058Z,6.50
2023-04-29T14:57:07.904Z,8.50
2023-04-29T15:00:57.369Z,8.00
2023-04-29T15:04:26.520Z,7.60
2023-04-29T15:08:03.620Z,8.20
2023-04-29T15:11:45.936Z,8.20
2023-04-29T15:15:36.457Z,8.70
2023-04-29T15:19:27.085Z,8.70
2023-04-29T15:23:15.931Z,9.80
2023-04-29T15:27:06.310Z,9.90
2023-04-29T15:30:57.404Z,10.10
2023-04-29T15:34:39.145Z,10.60
2023-04-29T15:38:24.783Z,9.70
2023-04-29T15:41:47.591Z,7.30
2023-04-29T15:45:29.102Z,7.10
2023-04-29T15:49:15.049Z,6.90
2023-04-29T15:53:05.123Z,7.60
2023-04-29T15:56:51.958Z,8.70
2023-04-29T16:00:25.439Z,9.30
2023-04-29T16:03:38.139Z,10.20
2023-04-29T16:07:11.242Z,10.60
2023-04-29T16:10:54.334Z,10.50
2023-04-29T16:14:32.502Z,11.70
2023-04-29T16:18:22.541Z,12.30
2023-04-29T16:21:55.678Z,11.70
2023-04-29T16:25:47.000Z,12.90
2023-04-29T16:29:12.659Z,13.70
2023-04-29T16:33:04.462Z,13.10
2023-04-29T16:36:54.801Z,13.40
2023-04-29T16:40:28.168Z,12.50
2023-04-29T16:44:01.226Z,12.40
2023-04-29T16:47:44.752Z,13.50
2023-04-29T16:51:35.030Z,14.60
2023-04-29T16:54:49.879Z,16.20
2023-04-29T16:58:04.572Z,15.90
2023-04-29T17:01:40.811Z,16.00
2023-04-29T17:05:26.997Z,17.40
2023-04-29T17:09:13.524Z,20.00
2023-04-29T17:12:32.265Z,21.10
2023-04-29T17:16:04.046Z,21.10
2023-04-29T17:19:53.582Z,24.10
2023-04-29T17:23:44.601Z,25.80
2023-04-29T17:27:35.327Z,27.50
2023-04-29T17:31:24.650Z,25.80
2023-04-29T17:34:47.039Z,26.60
2023-04-29T17:38:26.337Z,30.60
2023-04-29T17:41:55.531Z,32.10
2023-04-29T17:45:10.851Z,31.60
2023-04-29T17:47:49.935Z,36.00
2023-04-29T17:51:28.417Z,35.30
2023-04-29T17:55:09.267Z,37.30
2023-04-29T17:58:35.924Z,36.90
2023-04-29T18:02:25.895Z,39.20
2023-04-29T18:05:50.178Z,38.60
2023-04-29T18:09:17.151Z,36.90
2023-04-29T18:12:26.855Z,37.20
2023-04-29T18:15:43.018Z,37.10
2023-04-29T18:19:26.591Z,33.00
2023-04-29T18:22:36.224Z,33.90
2023-04-29T18:26:28.594Z,28.10
2023-04-29T18:30:16.385Z,33.20
2023-04-29T18:33:42.535Z,31.70
2023-04-29T18:37:12.641Z,28.90
2023-04-29T18:40:30.644Z,27.20
2023-04-29T18:44:04.225Z,28.60
2023-04-29T18:47:25.976Z,27.30
2023-04-29T18:50:56.437Z,23.00
2023-04-29T18:54:22.019Z,21.90
2023-04-29T18:58:15.336Z,23.30
2023-04-29T19:01:45.993Z,24.50
2023-04-29T19:05:27.115Z,20.80
2023-04-29T19:09:18.895Z,20.40
2023-04-29T19:12:44.535Z,20.90
2023-04-29T19:16:36.306Z,21.30
2023-04-29T19:20:26.665Z,16.80
2023-04-29T19:24:16.147Z,17.30
2023-04-29T19:27:48.962Z,15.90
2023-04-29T19:31:13.055Z,17.10
2023-04-29T19:35:01.542Z,15.20
2023-04-29T19:38:51.291Z,15.10
2023-04-29T19:42:32.697Z,14.30
2023-04-29T19:46:15.006Z,13.00
2023-04-29T19:49:58.689Z,12.00
2023-04-29T19:53:47.151Z,15.20
2023-04-29T19:59:51.806Z,15.30
2023-04-29T20:03:40.095Z,15.80
2023-04-29T20:07:11.345Z,16.60
2023-04-29T20:10:52.086Z,17.60
2023-04-29T20:16:25.024Z,13.50
2023-04-29T20:20:45.798Z,15.60
2023-04-29T20:24:55.400Z,16.40
2023-04-29T20:28:59.381Z,12.90
2023-04-29T20:32:52.426Z,14.50
2023-04-29T20:36:42.914Z,13.40
2023-04-29T20:40:39.087Z,13.00
2023-04-29T20:44:49.231Z,14.10
2023-04-29T20:49:17.734Z,12.60
2023-04-29T20:53:45.185Z,13.30
2023-04-29T20:57:57.772Z,13.30
2023-04-29T21:01:47.927Z,12.00
2023-04-29T21:05:46.664Z,13.70
2023-04-29T21:09:56.507Z,12.80
2023-04-29T21:14:07.057Z,12.70
2023-04-29T21:18:00.235Z,12.60
2023-04-29T21:22:08.478Z,13.00
2023-04-29T21:25:58.308Z,13.50
2023-04-29T21:29:51.821Z,13.00
2023-04-29T21:34:00.859Z,14.20
2023-04-29T21:37:54.277Z,12.50
2023-04-29T21:41:42.670Z,13.20
2023-04-29T21:45:37.185Z,12.50
2023-04-29T21:49:57.235Z,12.50
2023-04-29T21:54:08.660Z,14.90
2023-04-29T21:58:36.352Z,17.00
2023-04-29T22:02:24.346Z,17.60
2023-04-29T22:06:32.574Z,19.50
2023-04-29T22:10:40.298Z,18.00
2023-04-29T22:14:49.021Z,19.50
2023-04-29T22:18:39.789Z,21.20
2023-04-29T22:22:40.200Z,22.00
2023-04-29T22:26:30.252Z,20.20
2023-04-29T22:30:18.228Z,19.60
2023-04-29T22:34:06.802Z,18.10
2023-04-29T22:37:55.091Z,17.30
2023-04-29T22:41:43.018Z,16.70
2023-04-29T22:45:40.355Z,17.00
2023-04-29T22:49:48.478Z,15.60
2023-04-29T22:53:36.915Z,15.60
2023-04-29T22:57:26.020Z,16.10
2023-04-29T23:01:30.547Z,16.60
2023-04-29T23:05:20.301Z,18.20
2023-04-29T23:09:08.890Z,18.00
2023-04-29T23:13:16.431Z,18.50
2023-04-29T23:17:05.769Z,19.00
2023-04-29T23:21:17.146Z,19.80
2023-04-29T23:25:06.202Z,18.80
2023-04-29T23:28:54.112Z,19.30
2023-04-29T23:32:50.873Z,19.80
2023-04-29T23:36:38.697Z,18.90
2023-04-29T23:40:27.656Z,20.60
2023-04-29T23:44:15.431Z,19.00
2023-04-29T23:48:04.353Z,18.70
2023-04-29T23:51:56.940Z,18.40
2023-04-29T23:55:49.279Z,19.20
2023-04-29T23:59:37.321Z,17.30
